Time;durP1;ratioP1;P1;durP2;ratioP2;P2;SDS_P1;SDS_P2;PMS_P1;PMS_P2;Temp;Humidity;BMP_temperature;BMP_pressure;BME280_temperature;BME280_humidity;BME280_pressure;Samples;Min_cycle;Max_cycle;Signal;HPM_P1;HPM_P2
2022/07/21 00:00:22;;;;;;;22.47;20.37;;;22.10;99.90;;;;;;5094488;28;20540;-68
2022/07/21 00:02:51;;;;;;;23.20;20.97;;;22.20;99.90;;;;;;5094107;28;20503;-69
2022/07/21 00:05:18;;;;;;;23.50;21.20;;;22.20;99.90;;;;;;5094674;28;20522;-68
2022/07/21 00:07:46;;;;;;;25.83;19.50;;;22.20;99.90;;;;;;5094482;28;20466;-69
2022/07/21 00:10:13;;;;;;;22.27;19.90;;;22.10;99.90;;;;;;5094487;28;20526;-68
2022/07/21 00:12:40;;;;;;;23.70;21.40;;;22.00;99.90;;;;;;5094412;28;20532;-68
2022/07/21 00:15:08;;;;;;;22.73;20.43;;;22.10;99.90;;;;;;5094133;28;20524;-68
2022/07/21 00:17:35;;;;;;;23.00;20.70;;;22.00;99.90;;;;;;5094220;28;20478;-68
2022/07/21 00:20:06;;;;;;;24.07;21.87;;;21.90;99.90;;;;;;5094115;28;20479;-68
2022/07/21 00:22:33;;;;;;;23.60;21.20;;;21.90;99.90;;;;;;5094204;28;20450;-68
2022/07/21 00:25:00;;;;;;;24.80;22.40;;;21.90;99.90;;;;;;5093856;28;20444;-68
2022/07/21 00:27:27;;;;;;;23.77;21.30;;;21.80;99.90;;;;;;5093973;28;20541;-68
2022/07/21 00:29:53;;;;;;;22.20;20.10;;;21.70;99.90;;;;;;5094043;28;20553;-68
2022/07/21 00:32:20;;;;;;;23.50;21.10;;;21.80;99.90;;;;;;5094231;28;20439;-69
2022/07/21 00:34:47;;;;;;;22.73;20.43;;;21.90;99.90;;;;;;5093678;28;21060;-68
2022/07/21 00:37:15;;;;;;;23.73;21.47;;;21.90;99.90;;;;;;5093811;28;20555;-69
2022/07/21 00:39:42;;;;;;;24.50;22.10;;;21.90;99.90;;;;;;5094217;28;20866;-68
2022/07/21 00:42:19;;;;;;;23.90;21.60;;;21.90;99.90;;;;;;5093810;28;20446;-68
2022/07/21 00:44:46;;;;;;;25.40;22.90;;;21.90;99.90;;;;;;5093548;28;20549;-68
2022/07/21 00:47:13;;;;;;;24.80;22.40;;;22.00;99.90;;;;;;5094001;28;20534;-69
2022/07/21 00:49:41;;;;;;;24.60;22.23;;;22.00;99.90;;;;;;5094050;28;20522;-69
2022/07/21 00:52:07;;;;;;;26.00;23.33;;;22.10;99.90;;;;;;5094116;28;20447;-69
2022/07/21 00:54:36;;;;;;;25.20;22.80;;;22.20;99.90;;;;;;5093437;28;20510;-69
2022/07/21 00:57:03;;;;;;;24.57;22.07;;;22.20;99.90;;;;;;5093945;28;20579;-69
2022/07/21 00:59:30;;;;;;;25.17;21.63;;;22.30;99.90;;;;;;5094049;28;20489;-68
2022/07/21 01:01:57;;;;;;;25.20;22.70;;;22.30;99.90;;;;;;5093588;28;20440;-68
2022/07/21 01:04:26;;;;;;;24.23;21.53;;;22.30;99.90;;;;;;5093431;28;20546;-68
2022/07/21 01:06:54;;;;;;;24.83;22.43;;;22.30;99.90;;;;;;5093622;28;20451;-68
2022/07/21 01:09:20;;;;;;;22.87;20.67;;;22.30;99.90;;;;;;5093577;28;20458;-68
2022/07/21 01:11:49;;;;;;;23.00;20.70;;;22.30;99.90;;;;;;5093573;28;20523;-68
2022/07/21 01:14:17;;;;;;;22.20;20.20;;;22.40;99.90;;;;;;5093193;28;20464;-68
2022/07/21 01:16:44;;;;;;;22.07;20.07;;;22.40;99.90;;;;;;5097988;28;20570;-68
2022/07/21 01:19:11;;;;;;;22.63;20.40;;;22.30;99.90;;;;;;5097969;28;20798;-68
2022/07/21 01:21:41;;;;;;;22.10;20.10;;;22.30;99.90;;;;;;5097363;28;20530;-68
2022/07/21 01:24:08;;;;;;;21.97;19.77;;;22.30;99.90;;;;;;5097085;28;21056;-68
2022/07/21 01:26:42;;;;;;;21.50;19.47;;;22.20;99.90;;;;;;5097475;28;20519;-68
2022/07/21 01:29:10;;;;;;;21.17;19.17;;;22.20;99.90;;;;;;5097444;28;20763;-68
2022/07/21 01:31:37;;;;;;;19.50;17.70;;;22.20;99.90;;;;;;5097351;28;20440;-68
2022/07/21 01:34:05;;;;;;;21.40;19.50;;;22.20;99.90;;;;;;5096845;28;20478;-68
2022/07/21 01:36:32;;;;;;;20.83;18.83;;;22.20;99.90;;;;;;5097222;28;20566;-68
2022/07/21 01:41:45;;;;;;;20.47;18.57;;;22.20;99.90;;;;;;5097246;28;20473;-68
2022/07/21 01:44:14;;;;;;;19.83;18.00;;;22.20;99.90;;;;;;5096942;28;20472;-68
2022/07/21 01:46:44;;;;;;;20.80;18.80;;;22.20;99.90;;;;;;5096933;28;20471;-68
2022/07/21 01:49:12;;;;;;;20.67;18.77;;;22.10;99.90;;;;;;5097153;28;20451;-68
2022/07/21 01:51:39;;;;;;;21.07;18.97;;;22.10;99.90;;;;;;5096713;28;20453;-68
2022/07/21 01:54:09;;;;;;;20.83;18.73;;;22.20;99.90;;;;;;5096367;28;20475;-68
2022/07/21 01:56:38;;;;;;;19.53;17.77;;;22.10;99.90;;;;;;5096806;28;20569;-68
2022/07/21 01:59:06;;;;;;;18.60;16.77;;;22.10;99.90;;;;;;5096847;28;20534;-68
2022/07/21 02:01:33;;;;;;;17.37;15.67;;;22.20;99.90;;;;;;5096713;28;20997;-68
2022/07/21 02:04:01;;;;;;;17.27;15.67;;;22.10;99.90;;;;;;5096392;28;20554;-68
2022/07/21 02:06:29;;;;;;;17.87;16.17;;;22.10;99.90;;;;;;5096613;28;20450;-68
2022/07/21 02:08:56;;;;;;;18.00;16.30;;;22.10;99.90;;;;;;5096642;28;20535;-68
2022/07/21 02:11:25;;;;;;;17.80;16.17;;;22.10;99.90;;;;;;5096437;28;21028;-69
2022/07/21 02:13:51;;;;;;;17.77;16.00;;;22.10;99.90;;;;;;5096414;28;20464;-67
2022/07/21 02:16:18;;;;;;;16.93;15.33;;;22.10;99.90;;;;;;5096452;28;20558;-67
2022/07/21 02:18:46;;;;;;;17.43;15.70;;;22.00;99.90;;;;;;5096448;28;20444;-68
2022/07/21 02:21:13;;;;;;;15.73;14.20;;;22.00;99.90;;;;;;5096102;28;21008;-67
2022/07/21 02:23:39;;;;;;;16.93;15.23;;;22.00;99.90;;;;;;5096357;28;20469;-67
2022/07/21 02:26:07;;;;;;;15.50;14.10;;;22.00;99.90;;;;;;5095575;28;20435;-68
2022/07/21 02:28:35;;;;;;;16.07;14.37;;;22.00;99.90;;;;;;5096266;28;20523;-67
2022/07/21 02:31:02;;;;;;;14.33;12.93;;;22.00;99.90;;;;;;5096264;28;20876;-68
2022/07/21 02:33:29;;;;;;;16.50;14.90;;;22.00;99.90;;;;;;5096007;28;20578;-68
2022/07/21 02:35:56;;;;;;;16.10;14.60;;;22.00;99.90;;;;;;5095901;28;20533;-68
2022/07/21 02:38:23;;;;;;;15.63;14.10;;;22.00;99.90;;;;;;5096080;28;20859;-67
2022/07/21 02:40:50;;;;;;;16.10;14.60;;;21.90;99.90;;;;;;5096019;28;20449;-68
2022/07/21 02:43:16;;;;;;;15.60;14.20;;;21.90;99.90;;;;;;5095949;28;20873;-68
2022/07/21 02:45:45;;;;;;;14.50;13.10;;;21.80;99.90;;;;;;5095815;28;20527;-68
2022/07/21 02:48:13;;;;;;;16.60;14.90;;;21.60;99.90;;;;;;5095816;28;20535;-68
2022/07/21 02:50:42;;;;;;;15.77;14.27;;;21.50;99.90;;;;;;5095856;28;20527;-68
2022/07/21 02:53:10;;;;;;;15.90;14.20;;;21.30;99.90;;;;;;5095576;28;20837;-68
2022/07/21 02:55:37;;;;;;;15.73;14.13;;;21.30;99.90;;;;;;5095600;28;20475;-68
2022/07/21 02:58:07;;;;;;;15.70;14.23;;;21.20;99.90;;;;;;5095615;28;20566;-68
2022/07/21 03:00:35;;;;;;;17.93;15.67;;;21.20;99.90;;;;;;5096071;28;20538;-68
2022/07/21 03:03:03;;;;;;;15.23;13.73;;;21.20;99.90;;;;;;5095603;28;20825;-68
2022/07/21 03:05:30;;;;;;;15.90;14.30;;;21.20;99.90;;;;;;5095210;28;20534;-68
2022/07/21 03:07:57;;;;;;;15.33;13.83;;;21.20;99.90;;;;;;5095366;28;20526;-68
2022/07/21 03:10:24;;;;;;;15.10;13.70;;;21.10;99.90;;;;;;5095460;28;20485;-68
2022/07/21 03:12:51;;;;;;;15.10;13.60;;;21.20;99.90;;;;;;5095319;28;20554;-68
2022/07/21 03:15:18;;;;;;;14.63;13.27;;;21.20;99.90;;;;;;5094915;28;21040;-68
2022/07/21 03:17:45;;;;;;;15.40;13.00;;;21.20;99.90;;;;;;5094924;28;21037;-68
2022/07/21 03:20:13;;;;;;;15.27;13.77;;;21.10;99.90;;;;;;5095265;28;20534;-68
2022/07/21 03:22:40;;;;;;;15.07;13.47;;;21.10;99.90;;;;;;5095043;28;21019;-67
2022/07/21 03:25:08;;;;;;;16.53;14.93;;;21.10;99.90;;;;;;5094799;28;21031;-67
2022/07/21 03:27:36;;;;;;;15.43;13.93;;;21.10;99.90;;;;;;5095088;28;20441;-67
2022/07/21 03:30:07;;;;;;;16.27;13.77;;;21.20;99.90;;;;;;5094777;28;20443;-67
2022/07/21 03:32:34;;;;;;;15.43;14.03;;;21.20;99.90;;;;;;5094963;28;20538;-67
2022/07/21 03:35:01;;;;;;;15.70;14.10;;;21.30;99.90;;;;;;5094856;28;20617;-67
2022/07/21 03:37:30;;;;;;;13.83;12.53;;;21.30;99.90;;;;;;5093960;28;20483;-67
2022/07/21 03:39:57;;;;;;;14.50;13.00;;;21.40;99.90;;;;;;5095003;28;20478;-67
2022/07/21 03:42:24;;;;;;;14.00;12.60;;;21.50;99.90;;;;;;5094548;28;20451;-67
2022/07/21 03:44:50;;;;;;;14.07;12.67;;;21.50;99.90;;;;;;5094570;28;20570;-67
2022/07/21 03:47:17;;;;;;;13.60;12.30;;;21.40;99.90;;;;;;5094629;28;20538;-67
2022/07/21 03:49:44;;;;;;;12.90;11.70;;;21.50;99.90;;;;;;5094546;28;20528;-67
2022/07/21 03:52:11;;;;;;;13.10;11.90;;;21.50;99.90;;;;;;5094685;28;20533;-67
2022/07/21 03:54:39;;;;;;;13.40;12.10;;;21.50;99.90;;;;;;5094045;28;20573;-67
2022/07/21 03:57:06;;;;;;;14.13;12.80;;;21.50;99.90;;;;;;5094525;28;20581;-67
2022/07/21 03:59:33;;;;;;;14.47;12.97;;;21.40;99.90;;;;;;5094531;28;20533;-67
2022/07/21 04:02:00;;;;;;;12.40;11.30;;;21.30;99.90;;;;;;5094522;28;20530;-67
2022/07/21 04:04:27;;;;;;;12.60;11.50;;;21.40;99.90;;;;;;5094275;28;20868;-67
2022/07/21 04:06:53;;;;;;;14.87;12.43;;;21.30;99.90;;;;;;5094490;28;20921;-67
2022/07/21 04:09:20;;;;;;;12.90;11.70;;;21.40;99.90;;;;;;5094275;28;20530;-67
2022/07/21 04:11:48;;;;;;;19.83;17.93;;;21.40;99.90;;;;;;5094334;28;20483;-67
2022/07/21 04:14:15;;;;;;;14.37;13.00;;;21.40;99.90;;;;;;5093808;28;20546;-67
2022/07/21 04:16:42;;;;;;;12.83;11.63;;;21.40;99.90;;;;;;5094187;28;20562;-67
2022/07/21 04:19:09;;;;;;;13.43;12.23;;;21.50;99.90;;;;;;5094226;28;20529;-67
2022/07/21 04:21:36;;;;;;;13.37;12.07;;;21.50;99.90;;;;;;5094149;28;20842;-67
2022/07/21 04:24:03;;;;;;;13.80;12.50;;;21.50;99.90;;;;;;5093785;28;20551;-67
2022/07/21 04:26:29;;;;;;;13.73;12.43;;;21.50;99.90;;;;;;5093848;28;20933;-67
2022/07/21 04:28:58;;;;;;;13.13;11.93;;;21.50;99.90;;;;;;5093874;28;20449;-67
2022/07/21 04:31:24;;;;;;;12.90;11.70;;;21.50;99.90;;;;;;5093849;28;20536;-67
2022/07/21 04:33:51;;;;;;;13.20;11.90;;;21.50;99.90;;;;;;5093488;28;20556;-67
2022/07/21 04:36:18;;;;;;;14.10;12.80;;;21.50;99.90;;;;;;5093806;28;20534;-67
2022/07/21 04:38:45;;;;;;;16.27;12.67;;;21.40;99.90;;;;;;5093618;28;20967;-67
2022/07/21 04:41:12;;;;;;;13.97;12.57;;;21.40;99.90;;;;;;5093900;28;20538;-67
2022/07/21 04:43:38;;;;;;;13.70;12.43;;;21.50;99.90;;;;;;5093893;28;20546;-67
2022/07/21 04:46:07;;;;;;;14.00;12.60;;;21.50;99.90;;;;;;5094137;28;20450;-67
2022/07/21 04:48:34;;;;;;;13.67;12.43;;;21.50;99.90;;;;;;5093699;28;20436;-67
2022/07/21 04:51:01;;;;;;;12.80;11.63;;;21.50;99.90;;;;;;5093720;28;20523;-67
2022/07/21 04:53:28;;;;;;;13.83;12.53;;;21.50;99.90;;;;;;5093339;28;21071;-67
2022/07/21 04:55:54;;;;;;;13.23;12.03;;;21.50;99.90;;;;;;5093556;28;20446;-67
2022/07/21 04:58:21;;;;;;;13.53;12.13;;;21.50;99.90;;;;;;5093459;28;20522;-67
2022/07/21 05:00:48;;;;;;;14.50;11.83;;;21.50;99.90;;;;;;5093715;28;20855;-67
2022/07/21 05:03:16;;;;;;;13.50;12.27;;;21.50;99.90;;;;;;5093542;28;20475;-67
2022/07/21 05:05:43;;;;;;;13.70;12.40;;;21.50;99.90;;;;;;5093460;28;20537;-67
2022/07/21 05:08:10;;;;;;;14.43;13.03;;;21.50;99.90;;;;;;5093597;28;20435;-67
2022/07/21 05:10:37;;;;;;;14.30;12.60;;;21.50;99.90;;;;;;5093599;28;20534;-67
2022/07/21 05:13:04;;;;;;;14.97;13.57;;;21.50;99.90;;;;;;5093674;28;20553;-67
2022/07/21 05:15:31;;;;;;;15.40;14.10;;;21.50;99.90;;;;;;5093460;28;20534;-68
2022/07/21 05:17:57;;;;;;;14.53;12.93;;;21.50;99.90;;;;;;5093432;28;20571;-68
2022/07/21 05:20:26;;;;;;;13.67;12.40;;;21.50;99.90;;;;;;5093531;28;20455;-68
2022/07/21 05:22:52;;;;;;;14.87;13.33;;;21.60;99.90;;;;;;5093235;28;20551;-68
2022/07/21 05:25:19;;;;;;;14.10;12.80;;;21.60;99.90;;;;;;5093396;28;20448;-68
2022/07/21 05:27:46;;;;;;;14.57;13.07;;;21.60;99.90;;;;;;5093301;28;20527;-68
2022/07/21 05:30:14;;;;;;;13.37;12.10;;;21.60;99.90;;;;;;5093464;28;20527;-68
2022/07/21 05:32:40;;;;;;;14.43;13.13;;;21.70;99.90;;;;;;5093309;28;20527;-68
2022/07/21 05:35:11;;;;;;;14.03;12.73;;;21.70;99.90;;;;;;5093230;28;20539;-68
2022/07/21 05:37:40;;;;;;;13.97;12.67;;;21.70;99.90;;;;;;5093304;28;20486;-68
2022/07/21 05:40:08;;;;;;;14.10;12.70;;;21.70;99.90;;;;;;5093355;28;20842;-68
2022/07/21 05:42:35;;;;;;;14.10;12.80;;;21.70;99.90;;;;;;5093239;28;20443;-68
2022/07/21 05:45:03;;;;;;;13.67;12.47;;;21.70;99.90;;;;;;5093131;28;20447;-68
2022/07/21 05:47:31;;;;;;;14.90;13.60;;;21.80;99.90;;;;;;5093727;28;20529;-68
2022/07/21 05:49:58;;;;;;;14.67;13.17;;;21.90;99.90;;;;;;5093227;28;20444;-68
2022/07/21 05:52:25;;;;;;;14.00;12.70;;;21.90;99.90;;;;;;5093205;28;20529;-68
2022/07/21 05:54:53;;;;;;;15.50;13.90;;;22.00;99.90;;;;;;5092633;28;20570;-68
2022/07/21 05:57:20;;;;;;;14.60;13.30;;;21.90;99.90;;;;;;5093087;28;20575;-68
2022/07/21 05:59:47;;;;;;;15.23;13.83;;;21.80;99.90;;;;;;5093103;28;20522;-68
2022/07/21 06:02:15;;;;;;;15.20;13.70;;;21.90;99.90;;;;;;5095757;28;20535;-68
2022/07/21 06:04:41;;;;;;;15.40;14.00;;;22.00;99.90;;;;;;5096607;28;20470;-68
2022/07/21 06:07:08;;;;;;;14.97;13.43;;;22.10;99.90;;;;;;5096793;28;20531;-68
2022/07/21 06:09:35;;;;;;;14.43;12.70;;;22.10;99.90;;;;;;5096572;28;20439;-68
2022/07/21 06:12:04;;;;;;;14.77;13.47;;;22.20;99.90;;;;;;5096719;28;20455;-68
2022/07/21 06:14:31;;;;;;;15.00;13.57;;;22.20;99.90;;;;;;5096147;28;20467;-68
2022/07/21 06:16:58;;;;;;;14.93;13.60;;;22.20;99.90;;;;;;5096553;28;20526;-68
2022/07/21 06:19:25;;;;;;;14.83;13.53;;;22.20;99.90;;;;;;5096535;28;20440;-68
2022/07/21 06:21:52;;;;;;;15.50;14.10;;;22.20;99.90;;;;;;5096455;28;20439;-68
2022/07/21 06:24:19;;;;;;;14.40;13.07;;;22.10;99.90;;;;;;5096013;28;20550;-68
2022/07/21 06:26:46;;;;;;;14.30;13.10;;;22.00;99.90;;;;;;5096271;28;20454;-69
2022/07/21 06:29:14;;;;;;;14.50;13.30;;;22.00;99.90;;;;;;5096018;28;20512;-68
2022/07/21 06:31:41;;;;;;;13.70;12.40;;;22.00;99.90;;;;;;5096047;28;20533;-68
2022/07/21 06:34:08;;;;;;;15.63;14.03;;;22.00;99.90;;;;;;5096288;28;20563;-68
2022/07/21 06:36:35;;;;;;;16.00;13.97;;;22.00;99.90;;;;;;5096456;28;20868;-68
2022/07/21 06:39:02;;;;;;;15.23;13.80;;;21.90;99.90;;;;;;5096050;28;20480;-68
2022/07/21 06:41:29;;;;;;;14.40;13.17;;;21.90;99.90;;;;;;5096095;28;20862;-68
2022/07/21 06:43:56;;;;;;;14.63;13.33;;;21.90;99.90;;;;;;5095612;28;20546;-68
2022/07/21 06:46:24;;;;;;;15.70;14.30;;;22.00;99.90;;;;;;5095724;28;20527;-68
2022/07/21 06:48:51;;;;;;;14.63;13.33;;;22.00;99.90;;;;;;5095835;28;20443;-68
2022/07/21 06:51:18;;;;;;;14.70;13.50;;;21.90;99.90;;;;;;5095882;28;20870;-68
2022/07/21 06:53:45;;;;;;;15.17;13.67;;;21.90;99.90;;;;;;5095348;28;20910;-68
2022/07/21 06:56:12;;;;;;;13.83;12.70;;;21.70;99.90;;;;;;5095744;28;20842;-68
2022/07/21 06:58:38;;;;;;;14.10;12.87;;;21.60;99.90;;;;;;5095685;28;20566;-68
2022/07/21 07:01:06;;;;;;;14.80;13.30;;;21.50;99.90;;;;;;5095702;28;20444;-68
2022/07/21 07:03:34;;;;;;;14.07;12.77;;;21.60;99.90;;;;;;5095294;28;20479;-68
2022/07/21 07:06:01;;;;;;;13.43;12.23;;;21.60;99.90;;;;;;5095467;28;20447;-68
2022/07/21 07:08:27;;;;;;;13.43;12.10;;;21.80;99.90;;;;;;5095510;28;20531;-68
2022/07/21 07:10:54;;;;;;;13.17;11.97;;;21.90;99.90;;;;;;5095488;28;20539;-68
2022/07/21 07:13:21;;;;;;;11.80;10.80;;;21.90;99.90;;;;;;5095390;28;20552;-68
2022/07/21 07:15:48;;;;;;;14.60;13.10;;;21.90;99.90;;;;;;5095236;28;20447;-68
2022/07/21 07:18:15;;;;;;;13.70;12.30;;;21.90;99.90;;;;;;5095262;28;20579;-68
2022/07/21 07:20:43;;;;;;;14.30;13.10;;;22.10;99.90;;;;;;5095069;28;20448;-68
2022/07/21 07:23:10;;;;;;;13.17;11.77;;;22.30;99.90;;;;;;5095095;28;20547;-68
2022/07/21 07:25:38;;;;;;;12.50;11.50;;;22.60;99.90;;;;;;5094842;28;20531;-68
2022/07/21 07:28:06;;;;;;;12.53;11.37;;;22.90;99.90;;;;;;5095149;28;20444;-68
2022/07/21 07:30:33;;;;;;;13.63;12.53;;;23.10;99.90;;;;;;5095129;28;20444;-68
2022/07/21 07:33:00;;;;;;;13.30;12.10;;;22.90;99.90;;;;;;5095139;28;20555;-68
2022/07/21 07:35:27;;;;;;;12.73;11.67;;;23.10;99.90;;;;;;5094589;28;21029;-68
2022/07/21 07:37:55;;;;;;;12.93;11.80;;;23.30;99.90;;;;;;5094894;28;20559;-68
2022/07/21 07:40:23;;;;;;;13.77;12.37;;;23.20;99.90;;;;;;5094925;28;20531;-68
2022/07/21 07:42:51;;;;;;;13.27;12.17;;;23.10;99.90;;;;;;5094800;28;20447;-68
2022/07/21 07:45:18;;;;;;;12.47;11.43;;;23.10;99.90;;;;;;5094908;28;20539;-68
2022/07/21 07:47:45;;;;;;;12.00;11.00;;;23.30;99.90;;;;;;5094794;28;20491;-69
2022/07/21 07:50:14;;;;;;;13.07;11.87;;;23.80;99.90;;;;;;5094652;28;20534;-69
2022/07/21 07:52:43;;;;;;;13.23;11.90;;;24.40;99.90;;;;;;5094395;28;20534;-69
2022/07/21 07:55:12;;;;;;;11.70;10.63;;;25.20;99.90;;;;;;5094903;28;20535;-69
2022/07/21 07:57:39;;;;;;;11.50;10.50;;;25.80;99.90;;;;;;5094451;28;20534;-69
2022/07/21 08:00:09;;;;;;;11.63;10.67;;;26.00;99.90;;;;;;5094671;28;20535;-69
2022/07/21 08:02:36;;;;;;;11.10;10.20;;;26.00;99.90;;;;;;5093918;28;20443;-69
2022/07/21 08:05:04;;;;;;;12.23;11.23;;;25.70;99.90;;;;;;5094337;28;20518;-69
2022/07/21 08:07:31;;;;;;;10.30;9.50;;;25.20;99.90;;;;;;5094212;28;21025;-69
2022/07/21 08:09:58;;;;;;;11.70;10.70;;;24.90;99.90;;;;;;5094411;28;20443;-69
2022/07/21 08:12:26;;;;;;;11.20;10.30;;;25.30;99.90;;;;;;5094339;28;20440;-69
2022/07/21 08:14:53;;;;;;;10.53;9.63;;;26.30;99.90;;;;;;5094146;28;20901;-69
2022/07/21 08:17:20;;;;;;;10.83;9.93;;;26.70;99.90;;;;;;5094150;28;20535;-69
2022/07/21 08:19:47;;;;;;;12.17;10.97;;;26.50;99.90;;;;;;5094198;28;20572;-69
2022/07/21 08:22:13;;;;;;;10.10;9.30;;;26.80;99.90;;;;;;5094189;28;20550;-69
2022/07/21 08:24:40;;;;;;;9.57;8.77;;;27.40;98.20;;;;;;5093560;28;20791;-69
2022/07/21 08:27:07;;;;;;;10.10;9.10;;;28.10;95.90;;;;;;5094182;28;20448;-69
2022/07/21 08:29:35;;;;;;;9.80;8.90;;;27.80;95.10;;;;;;5094111;28;20439;-69
2022/07/21 08:32:02;;;;;;;10.63;9.73;;;27.60;95.60;;;;;;5094003;28;20531;-69
2022/07/21 08:34:30;;;;;;;10.33;9.40;;;27.40;96.40;;;;;;5093817;28;20547;-69
2022/07/21 08:36:57;;;;;;;10.63;9.60;;;26.90;97.30;;;;;;5093858;28;20444;-69
2022/07/21 08:39:24;;;;;;;10.20;9.20;;;26.50;99.80;;;;;;5093866;28;20514;-69
2022/07/21 08:41:52;;;;;;;10.30;9.50;;;27.10;99.50;;;;;;5094311;28;20451;-69
2022/07/21 08:44:21;;;;;;;10.63;9.70;;;28.50;96.10;;;;;;5093404;28;20567;-70
2022/07/21 08:46:51;;;;;;;10.67;9.80;;;30.20;93.60;;;;;;5093865;28;20522;-70
2022/07/21 08:49:22;;;;;;;10.47;9.67;;;31.50;89.40;;;;;;5094068;28;20534;-70
2022/07/21 08:51:51;;;;;;;10.60;9.70;;;32.40;83.10;;;;;;5093898;28;20452;-70
2022/07/21 08:54:18;;;;;;;9.53;8.83;;;32.00;78.60;;;;;;5093220;28;20487;-70
2022/07/21 08:56:44;;;;;;;12.13;11.10;;;31.80;78.60;;;;;;5093683;28;20537;-70
2022/07/21 08:59:11;;;;;;;9.80;9.10;;;31.20;78.50;;;;;;5093498;28;20472;-70
2022/07/21 09:01:38;;;;;;;10.47;9.60;;;30.20;81.00;;;;;;5093782;28;20531;-70
2022/07/21 09:04:24;;;;;;;9.57;8.77;;;29.40;84.90;;;;;;5093500;28;20507;-70
2022/07/21 09:06:53;;;;;;;10.07;9.27;;;29.50;86.20;;;;;;5093490;28;20862;-70
2022/07/21 09:09:22;;;;;;;9.40;8.70;;;30.90;82.60;;;;;;5093512;28;20530;-70
2022/07/21 09:11:50;;;;;;;10.67;9.87;;;32.30;81.50;;;;;;5093580;28;20444;-70
2022/07/21 09:14:18;;;;;;;9.97;9.20;;;34.00;78.50;;;;;;5093417;28;20551;-70
2022/07/21 09:16:48;;;;;;;10.30;9.30;;;35.40;65.80;;;;;;5093527;28;20440;-70
2022/07/21 09:19:20;;;;;;;9.20;8.60;;;36.30;64.10;;;;;;5093359;28;20468;-70
2022/07/21 09:21:50;;;;;;;9.00;8.40;;;36.90;57.50;;;;;;5093454;28;20444;-70
2022/07/21 09:24:25;;;;;;;13.03;11.97;;;37.80;54.90;;;;;;5093358;28;20550;-70
2022/07/21 09:27:21;;;;;;;8.30;7.70;;;38.70;51.00;;;;;;5093521;28;20463;-70
2022/07/21 09:29:49;;;;;;;8.40;7.90;;;40.00;46.60;;;;;;5058058;28;20871;-70
2022/07/21 09:32:20;;;;;;;9.50;8.90;;;40.30;44.40;;;;;;5093461;28;20527;-70
2022/07/21 09:34:48;;;;;;;8.17;7.57;;;40.40;42.50;;;;;;5093230;28;20456;-70
2022/07/21 09:37:17;;;;;;;8.67;8.00;;;40.60;43.50;;;;;;5095983;28;20444;-70
2022/07/21 09:39:46;;;;;;;7.93;7.43;;;40.60;43.00;;;;;;5097203;28;20561;-70
2022/07/21 09:42:15;;;;;;;8.60;8.00;;;40.70;42.50;;;;;;5097226;28;20530;-70
2022/07/21 09:44:44;;;;;;;7.73;7.23;;;41.20;40.20;;;;;;5096826;28;20554;-70
2022/07/21 09:47:13;;;;;;;8.27;7.73;;;41.30;40.40;;;;;;5096908;28;20534;-70
2022/07/21 09:49:40;;;;;;;7.90;7.40;;;41.30;39.40;;;;;;5097082;28;20444;-70
2022/07/21 09:52:21;;;;;;;8.40;7.80;;;41.70;38.90;;;;;;5097051;28;20442;-70
2022/07/21 09:54:48;;;;;;;8.30;7.70;;;41.90;37.50;;;;;;5096502;28;20562;-70
2022/07/21 09:57:16;;;;;;;7.70;7.20;;;41.00;38.40;;;;;;5096850;28;20522;-70
2022/07/21 09:59:45;;;;;;;8.37;7.87;;;40.90;38.60;;;;;;5096860;28;20476;-70
2022/07/21 10:02:16;;;;;;;8.30;7.80;;;41.30;38.30;;;;;;5096819;28;20531;-68
2022/07/21 10:04:44;;;;;;;8.80;8.13;;;41.00;37.90;;;;;;5096667;28;20546;-67
2022/07/21 10:07:11;;;;;;;8.67;8.00;;;39.70;39.00;;;;;;5096783;28;20530;-68
2022/07/21 10:09:40;;;;;;;8.10;7.60;;;38.70;41.90;;;;;;5096847;28;20539;-70
2022/07/21 10:12:08;;;;;;;7.90;7.40;;;38.80;41.40;;;;;;5096512;28;20802;-70
2022/07/21 10:14:36;;;;;;;7.97;7.37;;;39.00;42.80;;;;;;5096336;28;21041;-70
2022/07/21 10:17:05;;;;;;;7.00;6.60;;;39.50;40.80;;;;;;5096712;28;20436;-70
2022/07/21 10:19:37;;;;;;;7.77;7.27;;;39.30;39.50;;;;;;5096658;28;20912;-70
2022/07/21 10:22:10;;;;;;;6.87;6.47;;;39.00;42.30;;;;;;5096604;28;20802;-70
2022/07/21 10:24:39;;;;;;;7.50;7.10;;;39.40;40.40;;;;;;5096404;28;20554;-70
2022/07/21 10:27:08;;;;;;;6.43;6.00;;;39.20;39.50;;;;;;5096599;28;20472;-70
2022/07/21 10:29:54;;;;;;;6.50;6.10;;;39.90;39.10;;;;;;5096488;28;20440;-70
2022/07/21 10:32:22;;;;;;;6.73;6.33;;;38.80;39.00;;;;;;5096575;28;20528;-67
2022/07/21 10:34:50;;;;;;;7.43;6.93;;;37.30;44.60;;;;;;5095932;28;20887;-67
2022/07/21 10:37:45;;;;;;;6.40;6.00;;;36.80;43.70;;;;;;5095993;28;21013;-67
2022/07/21 10:40:38;;;;;;;6.80;6.30;;;36.50;44.30;;;;;;5096074;28;20483;-70
2022/07/21 10:43:43;;;;;;;7.80;7.30;;;35.40;43.30;;;;;;5095937;28;20459;-69
2022/07/21 10:46:36;;;;;;;7.80;7.20;;;33.40;48.40;;;;;;5095849;28;20523;-69
2022/07/21 10:49:05;;;;;;;7.57;7.07;;;33.20;51.20;;;;;;5095977;28;20441;-69
2022/07/21 10:51:34;;;;;;;6.43;6.03;;;33.40;52.00;;;;;;5095837;28;20472;-69
2022/07/21 10:54:17;;;;;;;6.13;5.63;;;33.50;48.90;;;;;;5095395;28;20566;-69
2022/07/21 10:56:46;;;;;;;6.43;6.03;;;33.10;48.20;;;;;;5095654;28;20428;-69
2022/07/21 10:59:13;;;;;;;6.47;5.90;;;32.60;46.50;;;;;;5095589;28;20571;-69
2022/07/21 11:01:39;;;;;;;6.00;5.60;;;31.90;49.90;;;;;;5095730;28;20842;-69
2022/07/21 11:04:11;;;;;;;5.93;5.53;;;31.40;49.70;;;;;;5095411;28;20540;-69
2022/07/21 11:06:39;;;;;;;6.80;6.30;;;31.20;50.20;;;;;;5095654;28;20529;-69
2022/07/21 11:09:14;;;;;;;6.60;6.20;;;30.80;51.70;;;;;;5095306;28;21004;-69
2022/07/21 11:11:59;;;;;;;6.63;6.10;;;30.50;51.70;;;;;;5095569;28;20838;-69
2022/07/21 11:14:37;;;;;;;6.93;6.43;;;30.40;53.50;;;;;;5095184;28;20467;-69
2022/07/21 11:17:05;;;;;;;6.33;5.83;;;30.10;52.60;;;;;;5095448;28;20527;-69
2022/07/21 11:19:35;;;;;;;6.60;6.00;;;29.80;52.40;;;;;;5095326;28;20907;-69
2022/07/21 11:22:04;;;;;;;6.40;5.90;;;29.40;53.80;;;;;;5095370;28;20441;-69
2022/07/21 11:24:32;;;;;;;6.60;6.10;;;29.00;57.60;;;;;;5094804;28;20551;-69
2022/07/21 11:27:02;;;;;;;6.80;6.30;;;28.90;56.30;;;;;;5095168;28;20450;-69
2022/07/21 11:29:30;;;;;;;6.30;5.90;;;29.10;57.10;;;;;;5095552;28;20534;-69
2022/07/21 11:31:58;;;;;;;6.43;5.90;;;29.10;55.80;;;;;;5095154;28;20440;-69
2022/07/21 11:34:25;;;;;;;6.57;6.07;;;29.00;55.20;;;;;;5094895;28;20471;-69
2022/07/21 11:37:00;;;;;;;6.87;6.40;;;28.60;58.20;;;;;;5095045;28;20527;-69
2022/07/21 11:39:27;;;;;;;7.00;6.50;;;28.60;58.60;;;;;;5094890;28;20558;-69
2022/07/21 11:41:54;;;;;;;6.33;5.83;;;28.60;58.60;;;;;;5094923;28;20493;-69
2022/07/21 11:44:27;;;;;;;6.93;6.47;;;28.30;60.00;;;;;;5094758;28;20476;-69
2022/07/21 11:46:56;;;;;;;6.60;6.10;;;28.10;60.30;;;;;;5095144;28;20482;-69
2022/07/21 11:49:23;;;;;;;7.10;6.43;;;27.90;58.40;;;;;;5094787;28;20436;-69
2022/07/21 11:51:51;;;;;;;6.47;6.03;;;27.90;58.90;;;;;;5094629;28;20527;-69
2022/07/21 11:54:29;;;;;;;6.93;6.43;;;27.90;59.40;;;;;;5094208;28;20895;-69
2022/07/21 11:56:58;;;;;;;6.90;6.10;;;27.50;58.10;;;;;;5094962;28;20522;-69
2022/07/21 11:59:26;;;;;;;6.40;6.00;;;27.40;59.30;;;;;;5093659;28;20571;-69
2022/07/21 12:01:56;;;;;;;7.13;6.53;;;27.40;59.90;;;;;;5094566;28;20539;-68
2022/07/21 12:04:43;;;;;;;6.63;6.13;;;27.20;61.00;;;;;;5094275;28;20495;-69
2022/07/21 12:07:20;;;;;;;7.30;6.60;;;26.90;64.00;;;;;;5094519;28;20523;-69
2022/07/21 12:09:49;;;;;;;7.40;6.90;;;27.10;67.30;;;;;;5094291;28;20436;-69
2022/07/21 12:12:27;;;;;;;7.63;7.03;;;27.20;62.60;;;;;;5094374;28;20444;-69
2022/07/21 12:14:56;;;;;;;7.20;6.67;;;27.20;64.80;;;;;;5093913;28;20829;-69
2022/07/21 12:17:34;;;;;;;7.40;6.90;;;27.30;68.70;;;;;;5094285;28;20479;-69
2022/07/21 12:20:01;;;;;;;12.90;11.53;;;27.30;66.90;;;;;;5094038;28;20563;-69
2022/07/21 12:22:39;;;;;;;7.80;7.17;;;27.50;67.90;;;;;;5094257;28;20440;-69
2022/07/21 12:25:08;;;;;;;7.13;6.63;;;28.00;62.60;;;;;;5093750;28;20519;-69
2022/07/21 12:27:36;;;;;;;7.80;7.20;;;28.20;61.80;;;;;;5093945;28;20444;-69
2022/07/21 12:30:09;;;;;;;7.80;6.77;;;28.10;62.10;;;;;;5093921;28;20443;-69
2022/07/21 12:32:43;;;;;;;7.83;7.23;;;28.00;62.60;;;;;;5094007;28;20471;-69
2022/07/21 12:35:25;;;;;;;7.50;6.90;;;28.10;61.60;;;;;;5093971;28;20832;-69
2022/07/21 12:38:06;;;;;;;9.10;8.40;;;28.20;60.80;;;;;;5094422;28;20443;-69
2022/07/21 12:40:35;;;;;;;11.90;8.97;;;28.10;62.70;;;;;;5093882;28;20532;-69
2022/07/21 12:43:12;;;;;;;8.70;7.80;;;28.10;65.30;;;;;;5093870;28;20494;-68